createdAt,value
2019-05-29T00:01:19.874Z,10.10
2019-05-29T00:03:47.503Z,10.11
2019-05-29T00:06:18.595Z,10.14
2019-05-29T00:08:49.154Z,10.15
2019-05-29T00:11:19.217Z,10.10
2019-05-29T00:13:49.160Z,9.97
2019-05-29T00:16:19.891Z,9.97
2019-05-29T00:18:50.077Z,9.94
2019-05-29T00:21:20.228Z,9.97
2019-05-29T00:23:50.725Z,9.92
2019-05-29T00:26:20.768Z,9.90
2019-05-29T00:28:51.121Z,9.81
2019-05-29T00:31:21.393Z,9.81
2019-05-29T00:33:51.745Z,9.86
2019-05-29T00:36:21.975Z,9.84
2019-05-29T00:38:51.963Z,9.85
2019-05-29T00:41:22.098Z,9.81
2019-05-29T00:43:53.089Z,9.77
2019-05-29T00:46:23.539Z,9.81
2019-05-29T00:48:53.541Z,9.88
2019-05-29T00:51:24.184Z,9.82
2019-05-29T00:53:54.136Z,9.83
2019-05-29T00:56:24.101Z,9.83
2019-05-29T00:58:54.607Z,9.84
2019-05-29T01:01:24.806Z,9.74
2019-05-29T01:03:54.782Z,9.73
2019-05-29T01:06:27.857Z,9.73
2019-05-29T01:08:57.939Z,9.71
2019-05-29T01:11:27.807Z,9.66
2019-05-29T01:13:57.843Z,9.67
2019-05-29T01:16:28.090Z,9.68
2019-05-29T01:19:18.081Z,9.66
2019-05-29T01:21:48.145Z,9.55
2019-05-29T01:24:18.403Z,9.60
2019-05-29T01:26:48.480Z,9.60
2019-05-29T01:29:19.437Z,9.53
2019-05-29T01:31:49.513Z,9.54
2019-05-29T01:34:19.796Z,9.63
2019-05-29T01:36:50.074Z,9.58
2019-05-29T01:39:21.604Z,9.58
2019-05-29T01:41:51.285Z,9.51
2019-05-29T01:44:21.508Z,9.50
2019-05-29T01:46:56.525Z,9.48
2019-05-29T01:49:27.931Z,9.63
2019-05-29T01:51:58.390Z,9.63
2019-05-29T01:54:28.342Z,9.53
2019-05-29T01:56:58.155Z,9.55
2019-05-29T01:59:28.144Z,9.55
2019-05-29T02:01:58.664Z,9.48
2019-05-29T02:04:29.048Z,9.45
2019-05-29T02:06:59.284Z,9.38
2019-05-29T02:09:29.432Z,9.41
2019-05-29T02:11:59.717Z,9.38
2019-05-29T02:14:30.693Z,9.38
2019-05-29T02:17:06.456Z,9.28
2019-05-29T02:19:36.265Z,9.28
2019-05-29T02:22:06.763Z,9.33
2019-05-29T02:24:37.495Z,9.18
2019-05-29T02:27:07.551Z,9.18
2019-05-29T02:29:38.025Z,9.20
2019-05-29T02:32:08.561Z,9.23
2019-05-29T02:34:39.543Z,9.28
2019-05-29T02:37:09.912Z,9.08
2019-05-29T02:39:44.494Z,9.08
2019-05-29T02:42:14.567Z,9.16
2019-05-29T02:44:44.693Z,9.16
2019-05-29T02:47:15.940Z,9.25
2019-05-29T02:49:46.036Z,9.23
2019-05-29T02:52:15.783Z,9.24
2019-05-29T02:54:45.771Z,9.24
2019-05-29T02:57:16.098Z,9.23
2019-05-29T02:59:46.063Z,9.26
2019-05-29T03:02:16.210Z,9.22
2019-05-29T03:04:46.240Z,9.29
2019-05-29T03:07:16.363Z,9.19
2019-05-29T03:09:46.603Z,9.19
2019-05-29T03:12:16.646Z,9.22
2019-05-29T03:14:46.646Z,9.16
2019-05-29T03:17:16.681Z,9.22
2019-05-29T03:19:47.009Z,9.15
2019-05-29T03:22:17.233Z,9.23
2019-05-29T03:24:47.188Z,9.30
2019-05-29T03:27:17.544Z,9.25
2019-05-29T03:29:51.960Z,9.30
2019-05-29T03:32:22.130Z,9.24
2019-05-29T03:34:51.869Z,9.22
2019-05-29T03:37:21.985Z,9.29
2019-05-29T03:39:52.235Z,9.33
2019-05-29T03:42:23.639Z,9.23
2019-05-29T03:44:55.562Z,9.21
2019-05-29T03:47:26.939Z,9.34
2019-05-29T03:49:58.078Z,9.34
2019-05-29T03:52:30.072Z,9.34
2019-05-29T03:55:00.317Z,9.38
2019-05-29T03:57:31.783Z,9.40
2019-05-29T04:00:02.196Z,9.34
2019-05-29T04:02:35.506Z,9.38
2019-05-29T04:05:06.696Z,9.39
2019-05-29T04:07:38.170Z,9.42
2019-05-29T04:10:09.174Z,9.44
2019-05-29T04:12:39.662Z,9.49
2019-05-29T04:15:11.222Z,9.47
2019-05-29T04:17:44.275Z,9.49
2019-05-29T04:20:14.335Z,9.42
2019-05-29T04:22:46.944Z,9.46
2019-05-29T04:25:18.370Z,9.51
2019-05-29T04:27:51.104Z,9.51
2019-05-29T04:30:21.462Z,9.57
2019-05-29T04:32:51.183Z,9.57
2019-05-29T04:35:21.599Z,9.53
2019-05-29T04:37:52.713Z,9.57
2019-05-29T04:40:22.746Z,9.52
2019-05-29T04:42:52.595Z,9.54
2019-05-29T04:45:26.606Z,9.60
2019-05-29T04:47:56.729Z,9.75
2019-05-29T04:50:29.003Z,9.67
2019-05-29T04:52:59.160Z,9.72
2019-05-29T04:55:29.256Z,9.77
2019-05-29T04:57:59.073Z,9.74
2019-05-29T05:00:29.284Z,9.82
2019-05-29T05:03:00.689Z,9.68
2019-05-29T05:05:31.186Z,9.68
2019-05-29T05:08:02.130Z,9.78
2019-05-29T05:10:40.850Z,9.77
2019-05-29T05:13:11.249Z,9.90
2019-05-29T05:15:43.918Z,9.93
2019-05-29T05:18:15.088Z,10.01
2019-05-29T05:20:45.903Z,10.08
2019-05-29T05:23:18.366Z,10.09
2019-05-29T05:25:49.325Z,10.02
2019-05-29T05:28:19.114Z,10.04
2019-05-29T05:30:49.361Z,10.07
2019-05-29T05:33:22.015Z,10.16
2019-05-29T05:35:51.968Z,10.20
2019-05-29T05:38:21.720Z,10.16
2019-05-29T05:40:52.991Z,10.23
2019-05-29T05:43:24.934Z,10.38
2019-05-29T05:45:56.209Z,10.38
2019-05-29T05:48:26.133Z,10.49
2019-05-29T05:50:55.674Z,10.53
2019-05-29T05:53:25.534Z,10.51
2019-05-29T05:55:55.196Z,10.42
2019-05-29T05:58:25.463Z,10.30
2019-05-29T06:00:55.427Z,10.33
2019-05-29T06:03:27.982Z,10.60
2019-05-29T06:05:58.022Z,10.55
2019-05-29T06:08:28.230Z,10.55
2019-05-29T06:10:58.070Z,10.58
2019-05-29T06:13:27.899Z,10.67
2019-05-29T06:15:57.844Z,10.74
2019-05-29T06:18:28.706Z,10.69
2019-05-29T06:20:58.730Z,10.49
2019-05-29T06:23:29.411Z,10.36
2019-05-29T06:26:01.941Z,10.30
2019-05-29T06:28:33.031Z,10.30
2019-05-29T06:31:05.663Z,10.47
2019-05-29T06:33:35.921Z,10.60
2019-05-29T06:36:05.835Z,10.49
2019-05-29T06:38:37.629Z,10.58
2019-05-29T06:41:07.677Z,10.83
2019-05-29T06:43:37.872Z,10.83
2019-05-29T06:46:08.133Z,10.79
2019-05-29T06:48:46.145Z,10.60
2019-05-29T06:51:10.371Z,10.67
2019-05-29T06:53:41.835Z,10.71
2019-05-29T06:56:22.387Z,10.65
2019-05-29T06:58:52.513Z,10.67
2019-05-29T07:01:22.362Z,10.60
2019-05-29T07:04:10.614Z,10.76
2019-05-29T07:06:26.871Z,10.64
2019-05-29T07:08:57.164Z,10.70
2019-05-29T07:11:27.655Z,10.80
2019-05-29T07:13:57.277Z,11.03
2019-05-29T07:16:43.129Z,11.02
2019-05-29T07:21:30.549Z,10.56
2019-05-29T07:24:00.453Z,10.65
2019-05-29T07:26:30.553Z,10.84
2019-05-29T07:29:08.075Z,11.00
2019-05-29T07:31:34.304Z,10.95
2019-05-29T07:34:04.425Z,11.05
2019-05-29T07:36:34.099Z,11.11
2019-05-29T07:39:05.371Z,12.08
2019-05-29T07:41:35.196Z,12.82
2019-05-29T07:44:05.259Z,12.44
2019-05-29T07:46:35.270Z,12.93
2019-05-29T07:49:05.636Z,13.66
2019-05-29T07:51:35.808Z,14.28
2019-05-29T07:54:06.026Z,14.25
2019-05-29T07:56:36.069Z,13.33
2019-05-29T07:59:08.168Z,13.46
2019-05-29T08:01:38.637Z,13.68
2019-05-29T08:04:08.555Z,13.30
2019-05-29T08:06:46.238Z,12.80
2019-05-29T08:09:11.776Z,12.28
2019-05-29T08:11:45.544Z,12.48
2019-05-29T08:14:15.311Z,12.20
2019-05-29T08:16:46.014Z,12.08
2019-05-29T08:19:16.026Z,12.01
2019-05-29T08:21:48.493Z,12.04
2019-05-29T08:24:18.731Z,12.63
2019-05-29T08:26:49.014Z,12.68
2019-05-29T08:29:18.519Z,12.61
2019-05-29T08:31:48.960Z,12.31
2019-05-29T08:34:19.167Z,12.18
2019-05-29T08:37:05.994Z,12.65
2019-05-29T08:39:35.537Z,12.38
2019-05-29T08:42:18.232Z,12.15
2019-05-29T08:44:25.724Z,12.04
2019-05-29T08:47:08.983Z,12.15
2019-05-29T08:49:29.065Z,11.99
2019-05-29T08:52:11.068Z,12.55
2019-05-29T08:54:30.645Z,12.55
2019-05-29T08:57:01.689Z,12.52
2019-05-29T08:59:32.059Z,12.28
2019-05-29T09:02:01.764Z,12.21
2019-05-29T09:04:31.589Z,12.21
2019-05-29T09:07:03.562Z,12.42
2019-05-29T09:09:34.475Z,12.46
2019-05-29T09:12:05.189Z,12.15
2019-05-29T09:14:39.478Z,12.16
2019-05-29T09:17:09.835Z,12.19
2019-05-29T09:19:40.005Z,12.33
2019-05-29T09:22:10.609Z,12.47
2019-05-29T09:24:40.928Z,12.58
2019-05-29T09:27:12.762Z,13.00
2019-05-29T09:29:44.867Z,13.00
2019-05-29T09:32:15.356Z,12.88
2019-05-29T09:34:47.708Z,13.13
2019-05-29T09:37:20.476Z,13.36
2019-05-29T09:39:50.520Z,13.04
2019-05-29T09:42:21.619Z,13.03
2019-05-29T09:44:53.722Z,13.10
2019-05-29T09:47:26.404Z,12.93
2019-05-29T09:49:59.839Z,13.19
2019-05-29T09:52:30.932Z,13.40
2019-05-29T09:55:04.852Z,13.16
2019-05-29T09:57:35.276Z,13.23
2019-05-29T10:00:06.486Z,12.65
2019-05-29T10:02:36.382Z,12.78
2019-05-29T10:05:12.584Z,12.69
2019-05-29T10:07:42.336Z,12.89
2019-05-29T10:10:12.609Z,13.27
2019-05-29T10:12:43.913Z,13.27
2019-05-29T10:15:14.383Z,13.31
2019-05-29T10:17:45.540Z,13.39
2019-05-29T10:20:17.482Z,13.21
2019-05-29T10:22:47.344Z,12.60
2019-05-29T10:25:17.243Z,13.03
2019-05-29T10:27:47.349Z,12.86
2019-05-29T10:30:18.213Z,12.81
2019-05-29T10:32:48.285Z,13.11
2019-05-29T10:35:18.312Z,13.17
2019-05-29T10:37:48.708Z,13.17
2019-05-29T10:40:18.443Z,12.98
2019-05-29T10:42:49.132Z,13.10
2019-05-29T10:45:19.897Z,13.35
2019-05-29T10:47:52.346Z,13.42
2019-05-29T10:50:24.963Z,13.21
2019-05-29T10:52:55.264Z,13.26
2019-05-29T10:55:26.450Z,13.00
2019-05-29T10:57:57.579Z,12.89
2019-05-29T11:00:29.055Z,12.90
2019-05-29T11:03:00.792Z,13.25
2019-05-29T11:05:31.225Z,13.24
2019-05-29T11:08:00.962Z,13.12
2019-05-29T11:10:31.288Z,12.96
2019-05-29T11:13:01.050Z,12.86
2019-05-29T11:15:30.591Z,13.20
2019-05-29T11:18:00.664Z,13.34
2019-05-29T11:20:31.987Z,13.16
2019-05-29T11:23:01.778Z,13.31
2019-05-29T11:25:32.453Z,13.67
2019-05-29T11:28:03.011Z,13.85
2019-05-29T11:30:32.847Z,13.57
2019-05-29T11:33:05.269Z,13.72
2019-05-29T11:35:36.532Z,13.59
2019-05-29T11:38:07.191Z,13.48
2019-05-29T11:40:36.960Z,13.41
2019-05-29T11:43:06.774Z,13.07
2019-05-29T11:45:36.666Z,13.14
2019-05-29T11:48:07.236Z,13.26
2019-05-29T11:50:37.857Z,13.55
2019-05-29T11:53:08.836Z,13.87
2019-05-29T11:55:39.676Z,13.63
2019-05-29T11:58:10.726Z,13.75
2019-05-29T12:00:40.516Z,13.56
2019-05-29T12:03:10.774Z,13.34
2019-05-29T12:05:42.277Z,13.11
2019-05-29T12:08:12.374Z,12.98
2019-05-29T12:10:45.414Z,13.41
2019-05-29T12:13:15.305Z,13.90
2019-05-29T12:15:44.994Z,14.00
2019-05-29T12:18:23.499Z,13.59
2019-05-29T12:20:46.862Z,13.68
2019-05-29T12:23:25.991Z,13.71
2019-05-29T12:25:49.338Z,13.77
2019-05-29T12:28:19.659Z,13.97
2019-05-29T12:30:49.443Z,13.69
2019-05-29T12:33:19.244Z,13.75
2019-05-29T12:35:50.256Z,14.18
2019-05-29T12:38:21.102Z,14.11
2019-05-29T12:40:51.225Z,14.19
2019-05-29T12:43:27.362Z,14.38
2019-05-29T12:45:53.459Z,14.17
2019-05-29T12:48:23.324Z,13.69
2019-05-29T12:50:54.114Z,13.63
2019-05-29T12:53:30.334Z,13.93
2019-05-29T12:55:58.187Z,14.17
2019-05-29T12:58:28.406Z,14.38
2019-05-29T13:00:58.535Z,14.36
2019-05-29T13:03:28.467Z,14.27
2019-05-29T13:05:58.542Z,14.32
2019-05-29T13:08:28.292Z,14.26
2019-05-29T13:10:58.270Z,14.41
2019-05-29T13:13:28.335Z,14.42
2019-05-29T13:15:58.747Z,14.61
2019-05-29T13:18:28.362Z,14.59
2019-05-29T13:20:58.916Z,14.71
2019-05-29T13:23:43.996Z,14.56
2019-05-29T13:26:01.436Z,14.67
2019-05-29T13:28:31.253Z,14.91
2019-05-29T13:31:01.904Z,14.81
2019-05-29T13:33:31.784Z,14.62
2019-05-29T13:36:02.238Z,14.76
2019-05-29T13:38:32.154Z,14.42
2019-05-29T13:41:02.542Z,14.34
2019-05-29T13:43:32.290Z,14.12
2019-05-29T13:46:02.573Z,14.25
2019-05-29T13:48:32.295Z,14.25
2019-05-29T13:51:03.663Z,14.42
2019-05-29T13:53:33.886Z,14.32
2019-05-29T13:56:04.174Z,14.42
2019-05-29T13:58:34.215Z,14.57
2019-05-29T14:01:11.973Z,14.57
2019-05-29T14:03:42.331Z,14.48
2019-05-29T14:06:12.852Z,14.51
2019-05-29T14:08:42.439Z,14.20
2019-05-29T14:11:12.429Z,14.27
2019-05-29T14:13:42.163Z,14.31
2019-05-29T14:16:13.001Z,14.22
2019-05-29T14:18:43.378Z,14.22
2019-05-29T14:21:13.582Z,14.01
2019-05-29T14:23:43.932Z,13.83
2019-05-29T14:26:13.762Z,14.20
2019-05-29T14:28:43.515Z,14.60
2019-05-29T14:31:13.692Z,14.01
2019-05-29T14:33:43.532Z,14.06
2019-05-29T14:36:13.674Z,13.94
2019-05-29T14:38:44.547Z,14.22
2019-05-29T14:41:14.910Z,14.33
2019-05-29T14:43:45.196Z,14.52
2019-05-29T14:46:15.221Z,14.45
2019-05-29T14:48:46.308Z,14.21
2019-05-29T14:51:17.256Z,14.32
2019-05-29T14:53:47.350Z,14.08
2019-05-29T14:56:17.709Z,13.89
2019-05-29T14:58:48.472Z,14.01
2019-05-29T15:01:18.467Z,14.16
2019-05-29T15:03:48.676Z,14.42
2019-05-29T15:06:18.795Z,14.26
2019-05-29T15:08:49.015Z,14.22
2019-05-29T15:11:19.116Z,14.52
2019-05-29T15:13:49.419Z,14.69
2019-05-29T15:16:19.087Z,14.62
2019-05-29T15:18:49.036Z,14.54
2019-05-29T15:21:19.545Z,14.34
2019-05-29T15:23:49.295Z,14.21
2019-05-29T15:26:19.198Z,14.24
2019-05-29T15:28:49.417Z,14.49
2019-05-29T15:31:19.321Z,14.19
2019-05-29T15:33:49.042Z,14.32
2019-05-29T15:36:18.912Z,13.93
2019-05-29T15:38:48.772Z,14.25
2019-05-29T15:41:18.531Z,14.11
2019-05-29T15:43:49.462Z,13.90
2019-05-29T15:46:19.641Z,14.09
2019-05-29T15:48:50.324Z,13.96
2019-05-29T15:51:21.879Z,13.93
2019-05-29T15:53:52.712Z,14.19
2019-05-29T15:56:27.948Z,13.45
2019-05-29T15:58:54.366Z,13.18
2019-05-29T16:01:23.962Z,13.60
2019-05-29T16:03:53.943Z,13.74
2019-05-29T16:06:24.586Z,13.56
2019-05-29T16:08:54.511Z,13.63
2019-05-29T16:11:25.431Z,13.76
2019-05-29T16:13:56.144Z,13.81
2019-05-29T16:16:26.037Z,13.90
2019-05-29T16:18:56.052Z,13.91
2019-05-29T16:21:26.275Z,13.77
2019-05-29T16:23:56.465Z,13.50
2019-05-29T16:26:26.442Z,13.40
2019-05-29T16:28:56.759Z,13.68
2019-05-29T16:31:26.628Z,13.69
2019-05-29T16:33:56.259Z,13.58
2019-05-29T16:36:27.893Z,13.40
2019-05-29T16:38:57.878Z,13.66
2019-05-29T16:41:28.230Z,13.58
2019-05-29T16:43:58.206Z,13.63
2019-05-29T16:46:27.884Z,13.51
2019-05-29T16:48:57.609Z,13.43
2019-05-29T16:51:27.380Z,13.53
2019-05-29T16:53:57.647Z,13.45
2019-05-29T16:56:27.650Z,13.56
2019-05-29T16:58:57.691Z,13.60
2019-05-29T17:01:27.467Z,13.68
2019-05-29T17:03:57.449Z,13.43
2019-05-29T17:06:27.912Z,13.20
2019-05-29T17:08:58.129Z,13.40
2019-05-29T17:11:28.286Z,13.17
2019-05-29T17:13:58.457Z,13.27
2019-05-29T17:16:28.574Z,13.30
2019-05-29T17:19:03.040Z,13.42
2019-05-29T17:21:33.251Z,13.52
2019-05-29T17:24:03.292Z,13.46
2019-05-29T17:26:33.270Z,13.58
2019-05-29T17:29:03.320Z,13.21
2019-05-29T17:31:33.043Z,13.17
2019-05-29T17:34:02.738Z,13.28
2019-05-29T17:36:33.198Z,13.35
2019-05-29T17:39:03.434Z,13.36
2019-05-29T17:41:33.657Z,13.20
2019-05-29T17:44:04.128Z,13.02
2019-05-29T17:46:34.197Z,13.05
2019-05-29T17:49:04.521Z,12.96
2019-05-29T17:51:34.654Z,12.99
2019-05-29T17:54:04.881Z,13.05
2019-05-29T17:56:36.876Z,12.88
2019-05-29T17:59:07.022Z,12.93
2019-05-29T18:01:37.133Z,12.89
2019-05-29T18:04:06.907Z,12.72
2019-05-29T18:06:37.506Z,12.97
2019-05-29T18:09:08.894Z,12.66
2019-05-29T18:11:39.134Z,12.65
2019-05-29T18:14:08.833Z,12.59
2019-05-29T18:16:38.811Z,12.54
2019-05-29T18:19:08.684Z,12.49
2019-05-29T18:21:43.715Z,12.49
2019-05-29T18:26:52.709Z,12.43
2019-05-29T18:31:53.763Z,12.39
2019-05-29T18:34:25.220Z,12.45
2019-05-29T18:36:56.125Z,12.50
2019-05-29T18:39:26.322Z,12.39
2019-05-29T18:41:56.817Z,12.37
2019-05-29T18:44:26.977Z,12.15
2019-05-29T18:46:57.053Z,12.13
2019-05-29T18:49:26.842Z,12.26
2019-05-29T18:52:00.219Z,12.31
2019-05-29T18:54:30.044Z,12.27
2019-05-29T18:57:14.749Z,12.32
2019-05-29T18:59:33.322Z,12.36
2019-05-29T19:02:04.304Z,12.27
2019-05-29T19:07:10.493Z,12.23
2019-05-29T19:09:41.653Z,12.25
2019-05-29T19:12:12.807Z,12.25
2019-05-29T19:14:42.985Z,12.21
2019-05-29T19:17:12.763Z,12.18
2019-05-29T19:19:42.690Z,12.19
2019-05-29T19:22:13.121Z,12.17
2019-05-29T19:24:43.575Z,12.08
2019-05-29T19:27:27.978Z,11.98
2019-05-29T19:29:45.928Z,12.02
2019-05-29T19:32:17.469Z,12.04
2019-05-29T19:34:47.996Z,12.13
2019-05-29T19:37:18.067Z,12.09
2019-05-29T19:39:47.779Z,12.07
2019-05-29T19:42:17.617Z,12.01
2019-05-29T19:44:47.747Z,11.96
2019-05-29T19:47:17.469Z,11.91
2019-05-29T19:49:48.072Z,11.91
2019-05-29T19:52:19.195Z,11.93
2019-05-29T19:54:50.188Z,11.83
2019-05-29T19:57:20.586Z,11.77
2019-05-29T19:59:51.362Z,11.67
2019-05-29T20:02:22.861Z,11.73
2019-05-29T20:04:54.217Z,11.72
2019-05-29T20:07:25.466Z,11.69
2019-05-29T20:09:55.970Z,11.74
2019-05-29T20:12:25.959Z,11.73
2019-05-29T20:14:56.035Z,11.69
2019-05-29T20:17:27.929Z,11.64
2019-05-29T20:19:59.215Z,11.61
2019-05-29T20:22:30.536Z,11.56
2019-05-29T20:25:01.219Z,11.52
2019-05-29T20:27:32.084Z,11.59
2019-05-29T20:30:02.016Z,11.59
2019-05-29T20:32:32.927Z,11.62
2019-05-29T20:35:03.784Z,11.59
2019-05-29T20:37:36.685Z,11.59
2019-05-29T20:40:07.158Z,11.53
2019-05-29T20:42:39.151Z,11.46
2019-05-29T20:45:10.482Z,11.45
2019-05-29T20:47:41.954Z,11.43
2019-05-29T20:50:14.372Z,11.50
2019-05-29T20:52:45.242Z,11.48
2019-05-29T20:55:15.389Z,11.40
2019-05-29T20:57:44.987Z,11.35
2019-05-29T21:00:18.872Z,11.29
2019-05-29T21:02:49.333Z,11.24
2019-05-29T21:05:19.976Z,11.18
2019-05-29T21:07:50.113Z,11.13
2019-05-29T21:10:20.253Z,11.12
2019-05-29T21:12:50.563Z,11.09
2019-05-29T21:15:20.598Z,11.09
2019-05-29T21:17:50.438Z,11.08
2019-05-29T21:20:20.391Z,11.03
2019-05-29T21:22:50.183Z,10.99
2019-05-29T21:25:20.228Z,10.93
2019-05-29T21:27:50.007Z,10.88
2019-05-29T21:30:23.835Z,10.83
2019-05-29T21:32:54.096Z,10.77
2019-05-29T21:35:23.929Z,10.72
2019-05-29T21:37:53.783Z,10.68
2019-05-29T21:40:24.092Z,10.62
2019-05-29T21:42:53.888Z,10.62
2019-05-29T21:45:23.482Z,10.59
2019-05-29T21:47:53.440Z,10.54
2019-05-29T21:50:23.288Z,10.52
2019-05-29T21:52:53.060Z,10.52
2019-05-29T21:55:22.996Z,10.46
2019-05-29T21:57:54.637Z,10.43
2019-05-29T22:00:40.123Z,10.41
2019-05-29T22:03:10.468Z,10.36
2019-05-29T22:05:40.579Z,10.31
2019-05-29T22:08:10.438Z,10.24
2019-05-29T22:10:40.586Z,10.18
2019-05-29T22:13:10.822Z,10.14
2019-05-29T22:15:42.840Z,10.09
2019-05-29T22:18:13.120Z,10.02
2019-05-29T22:20:43.413Z,10.02
2019-05-29T22:23:17.435Z,10.01
2019-05-29T22:25:48.875Z,9.97
2019-05-29T22:28:19.754Z,9.92
2019-05-29T22:30:51.277Z,9.92
2019-05-29T22:33:22.403Z,9.88
2019-05-29T22:35:54.038Z,9.84
2019-05-29T22:38:24.294Z,9.80
2019-05-29T22:40:55.440Z,9.77
2019-05-29T22:43:25.635Z,9.73
2019-05-29T22:45:57.638Z,9.68
2019-05-29T22:48:27.623Z,9.66
2019-05-29T22:50:57.789Z,9.64
2019-05-29T22:53:28.172Z,9.60
2019-05-29T22:55:58.061Z,9.54
2019-05-29T22:58:27.975Z,9.48
2019-05-29T23:00:58.705Z,9.41
2019-05-29T23:03:28.548Z,9.42
2019-05-29T23:05:58.619Z,9.43
2019-05-29T23:08:29.520Z,9.43
2019-05-29T23:11:03.242Z,9.40
2019-05-29T23:13:34.247Z,9.41
2019-05-29T23:16:04.410Z,9.43
2019-05-29T23:18:34.467Z,9.39
2019-05-29T23:21:04.442Z,9.35
2019-05-29T23:23:34.336Z,9.35
2019-05-29T23:26:04.511Z,9.35
2019-05-29T23:28:34.265Z,9.32
2019-05-29T23:31:05.041Z,9.29
2019-05-29T23:33:35.246Z,9.26
2019-05-29T23:36:05.149Z,9.26
2019-05-29T23:38:37.015Z,9.26
2019-05-29T23:41:06.752Z,9.27
2019-05-29T23:43:36.305Z,9.26
2019-05-29T23:46:06.346Z,9.28
2019-05-29T23:48:36.074Z,9.29
2019-05-29T23:51:06.555Z,9.16
2019-05-29T23:53:36.788Z,9.29
2019-05-29T23:56:06.507Z,9.30
2019-05-29T23:58:36.344Z,9.29
